Radar strel več informacij blitzortung!


Radar padavin  rain snow radar


Obiščite še:

Template documentation
and downloads

And another site



METAR v bližini

   
LJLJ - Ljubljana
Posodobljeno: 21-04-2018 03:30
jasno  
jasno  
   Veter: različen 1.9 km/h
Veter: različen 1.9 km/h
Temperatura: 8°C
Točka rosišča: 7°C
Vlažnost: 93%
Zračni tlak: 1023 hPa
Vidljivost: More than 10 km
Podrobnosti o oblakih: jasno
LJLJ 210130Z VRB01KT CAVOK 08/07 Q1023 NOSIG
LJCE - Cerklje ob Krki
Posodobljeno: 21-04-2018 03:30
jasno  
jasno  
   Veter: Brezveterje
Veter: Brezveterje
Temperatura: 9°C
Točka rosišča: 8°C
Vlažnost: 94%
Zračni tlak: 1022 hPa
Oblaki: jasno
Vidljivost: More than 10 km
Podrobnosti o oblakih: jasno
LJCE 210130Z AUTO 00000KT 9999 NCD 09/08 Q1022
LJMB - Maribor
Posodobljeno: 21-04-2018 03:30
jasno  
jasno  
   Veter: SSZ 1.9 km/h
Veter: SSZ 1.9 km/h
Temperatura: 9°C
Točka rosišča: 7°C
Vlažnost: 87%
Zračni tlak: 1022 hPa
Oblaki: jasno
Vidljivost: More than 10 km
Podrobnosti o oblakih: jasno
LJMB 210130Z AUTO 33001KT 9999 NCD 09/07 Q1022
LJPZ - Portorož
Posodobljeno: 21-04-2018 03:30
jasno  
jasno  
   Veter: VJV 16.7 km/h
Veter: VJV 16.7 km/h
Temperatura: 13°C
Točka rosišča: 9°C
Vlažnost: 77%
Zračni tlak: 1020 hPa
Oblaki: jasno
Vidljivost: More than 10 km
Podrobnosti o oblakih: jasno
LJPZ 210130Z AUTO 12009KT 9999 NCD 13/09 Q1020
LDRI - Rijeka, Airport, Croatia
Posodobljeno: 21-04-2018 03:30
jasno  
jasno  
   Veter: različen 3.7 km/h
Veter: različen 3.7 km/h
Temperatura: 15°C
Točka rosišča: 9°C
Vlažnost: 68%
Zračni tlak: 1021 hPa
Vidljivost: More than 10 km
Podrobnosti o oblakih: jasno
LDRI 210130Z VRB02KT CAVOK 15/09 Q1021
LOWK - Klagenfurt, Airport, Avstia
Posodobljeno: 21-04-2018 03:50
delno oblačno  
delno oblačno  
   Veter: ZSZ 5.6 km/h
Veter: ZSZ 5.6 km/h
Temperatura: 10°C
Občutek mraza: 9°C
Točka rosišča: 7°C
Vlažnost: 82%
Zračni tlak: 1023 hPa
Oblaki: delno oblačno
Vidljivost: More than 10 km
Podrobnosti o oblakih: delno oblačno
LOWK 210150Z AUTO 30003KT 9999 NSC 10/07 Q1023

Script developed by  Saratoga-weather.org Adapted for the template by  Weerstation Leuven

Oprema, ki se uporablja:

Vremenska postaja
AERCUS WH 3083

Vremenski program
Cumulus

AERCUS WH 3083

Cumulus